Time;durP1;ratioP1;P1;durP2;ratioP2;P2;SDS_P1;SDS_P2;PMS_P1;PMS_P2;Temp;Humidity;BMP_temperature;BMP_pressure;BME280_temperature;BME280_humidity;BME280_pressure;Samples;Min_cycle;Max_cycle;Signal;HPM_P1;HPM_P2
2021/01/10 00:00:42;;;;;;;26.95;18.02;;;;;;;0.26;77.03;99672.98;1760398;81;21157;-58
2021/01/10 00:03:10;;;;;;;29.27;18.42;;;;;;;0.25;77.14;99670.81;1764175;81;21169;-56
2021/01/10 00:05:39;;;;;;;32.03;19.77;;;;;;;0.25;77.23;99672.16;1748561;81;21174;-56
2021/01/10 00:08:07;;;;;;;29.30;18.80;;;;;;;0.36;76.92;99673.38;1765526;81;21569;-56
2021/01/10 00:10:34;;;;;;;29.90;17.77;;;;;;;0.35;76.86;99677.94;1740651;81;21401;-57
2021/01/10 00:13:04;;;;;;;30.88;18.30;;;;;;;0.29;77.14;99674.73;1747030;81;21156;-56
2021/01/10 00:15:32;;;;;;;33.25;21.50;;;;;;;0.33;76.95;99671.13;1764259;80;21170;-57
2021/01/10 00:18:00;;;;;;;31.70;19.27;;;;;;;0.36;76.63;99677.40;1765875;80;21319;-58
2021/01/10 00:20:28;;;;;;;33.70;20.85;;;;;;;0.08;76.81;99640.14;1758291;81;21606;-57
2021/01/10 00:22:56;;;;;;;31.77;21.00;;;;;;;0.11;76.88;99645.08;1747032;82;21188;-56
2021/01/10 00:25:24;;;;;;;33.08;20.88;;;;;;;0.41;76.60;99683.80;1751540;81;21572;-58
2021/01/10 00:27:52;;;;;;;32.35;20.75;;;;;;;0.35;76.53;99688.66;1767102;81;21577;-56
2021/01/10 00:30:21;;;;;;;34.03;21.97;;;;;;;0.35;76.57;99689.99;1726976;81;21149;-56
2021/01/10 00:32:53;;;;;;;36.95;21.27;;;;;;;0.33;76.55;99695.23;1747769;81;21166;-56
2021/01/10 00:35:22;;;;;;;31.80;20.95;;;;;;;0.41;76.34;99697.19;1749156;81;21177;-56
2021/01/10 00:37:55;;;;;;;33.02;20.52;;;;;;;0.36;76.55;99692.95;1747266;82;21213;-56
2021/01/10 00:40:24;;;;;;;35.25;23.47;;;;;;;0.34;76.58;99696.37;1761262;80;21150;-56
2021/01/10 00:42:52;;;;;;;33.05;21.05;;;;;;;0.35;76.60;99692.67;1771795;81;21649;-56
2021/01/10 00:45:20;;;;;;;32.25;21.42;;;;;;;0.38;76.47;99696.78;1759879;81;21141;-56
2021/01/10 00:47:53;;;;;;;32.40;20.75;;;;;;;0.35;76.59;99694.01;1747262;81;21201;-57
2021/01/10 00:50:19;;;;;;;32.67;20.55;;;;;;;0.36;76.58;99692.12;1760863;81;21141;-57
2021/01/10 00:52:47;;;;;;;35.48;21.55;;;;;;;0.36;76.52;99695.63;1749025;81;21620;-56
2021/01/10 00:55:15;;;;;;;34.63;21.20;;;;;;;0.37;76.47;99692.45;1749587;81;21197;-57
2021/01/10 00:57:42;;;;;;;33.08;20.97;;;;;;;0.39;76.48;99695.22;1744639;81;21732;-57
2021/01/10 01:00:14;;;;;;;38.88;22.95;;;;;;;0.40;76.48;99698.21;1751003;81;21186;-57
2021/01/10 01:02:43;;;;;;;35.13;22.25;;;;;;;0.39;76.52;99695.76;1743264;81;21169;-56
2021/01/10 01:05:12;;;;;;;31.50;20.48;;;;;;;0.40;76.55;99700.89;1740836;81;21153;-56
2021/01/10 01:07:41;;;;;;;32.13;20.37;;;;;;;0.00;76.37;99625.66;1742717;81;21146;-56
2021/01/10 01:10:10;;;;;;;36.33;23.85;;;;;;;0.35;76.72;99694.52;1748469;81;21157;-56
2021/01/10 01:12:38;;;;;;;35.20;21.73;;;;;;;0.41;76.56;99690.49;1755845;81;21176;-56
2021/01/10 01:15:07;;;;;;;37.33;20.88;;;;;;;0.44;76.51;99692.75;1774790;81;21553;-56
2021/01/10 01:17:36;;;;;;;37.30;23.75;;;;;;;0.38;76.73;99694.10;1748330;81;21218;-57
2021/01/10 01:20:05;;;;;;;32.80;20.37;;;;;;;0.40;76.72;99690.69;1751301;81;21154;-56
2021/01/10 01:22:32;;;;;;;39.83;23.95;;;;;;;0.45;76.52;99690.39;1751816;81;21565;-57
2021/01/10 01:25:02;;;;;;;35.70;22.22;;;;;;;0.40;76.74;99694.20;1777559;81;21149;-56
2021/01/10 01:27:34;;;;;;;35.65;21.50;;;;;;;0.36;76.89;99692.95;1772416;80;21166;-57
2021/01/10 01:30:04;;;;;;;32.30;20.88;;;;;;;0.47;76.76;99692.34;1772969;81;21150;-56
2021/01/10 01:32:35;;;;;;;35.20;22.37;;;;;;;0.47;76.68;99696.35;1740128;81;21569;-56
2021/01/10 01:35:05;;;;;;;39.27;24.18;;;;;;;0.39;76.97;99695.76;1759245;81;21278;-57
2021/01/10 01:37:35;;;;;;;32.38;20.02;;;;;;;0.39;77.08;99690.41;1775899;81;21193;-56
2021/01/10 01:40:06;;;;;;;35.95;23.10;;;;;;;0.39;77.12;99688.52;1771127;81;21295;-56
2021/01/10 01:42:34;;;;;;;36.10;22.15;;;;;;;0.48;76.99;99690.48;1775677;80;21612;-57
2021/01/10 01:45:06;;;;;;;35.38;22.45;;;;;;;0.42;77.14;99686.80;1762369;80;21502;-56
2021/01/10 01:47:34;;;;;;;34.45;20.95;;;;;;;0.36;77.47;99693.47;1738687;82;21185;-56
2021/01/10 01:50:05;;;;;;;36.93;22.85;;;;;;;0.40;77.44;99683.99;1747169;81;21236;-56
2021/01/10 01:52:33;;;;;;;36.08;23.32;;;;;;;0.40;77.43;99684.82;1756367;81;21790;-56
2021/01/10 01:55:04;;;;;;;38.78;24.25;;;;;;;0.30;77.75;99685.76;1775285;81;21165;-57
2021/01/10 01:57:32;;;;;;;34.90;22.37;;;;;;;0.35;77.75;99689.99;1773137;80;21191;-57
2021/01/10 02:00:00;;;;;;;38.45;23.45;;;;;;;0.40;77.64;99693.37;1757296;81;21117;-56
2021/01/10 02:02:29;;;;;;;38.65;23.92;;;;;;;0.30;77.97;99696.47;1767253;81;21117;-56
2021/01/10 02:05:08;;;;;;;36.30;23.50;;;;;;;0.32;77.97;99699.75;1764627;81;21659;-56
2021/01/10 02:07:58;;;;;;;36.73;23.32;;;;;;;0.37;77.92;99698.63;1732021;82;21550;-56
2021/01/10 02:10:29;;;;;;;37.30;22.40;;;;;;;0.22;78.13;99687.30;1769533;80;21137;-55
2021/01/10 02:12:59;;;;;;;36.63;22.27;;;;;;;0.29;78.38;99704.19;1756345;81;21156;-56
2021/01/10 02:15:31;;;;;;;34.35;22.22;;;;;;;0.36;78.15;99701.50;1762989;81;21565;-57
2021/01/10 02:18:00;;;;;;;37.10;23.52;;;;;;;0.30;78.30;99700.48;1781336;80;21920;-56
2021/01/10 02:20:32;;;;;;;38.83;24.70;;;;;;;0.26;78.47;99699.76;1766397;80;21585;-56
2021/01/10 02:23:18;;;;;;;35.43;22.75;;;;;;;0.38;78.17;99706.16;1759279;80;21525;-56
2021/01/10 02:25:46;;;;;;;37.50;23.20;;;;;;;0.35;78.17;99699.88;1756537;80;21295;-56
2021/01/10 02:28:19;;;;;;;42.00;25.27;;;;;;;0.33;78.19;99704.09;1756348;80;21585;-57
2021/01/10 02:30:46;;;;;;;38.15;23.80;;;;;;;0.42;77.92;99698.84;1768169;80;21198;-56
2021/01/10 02:33:35;;;;;;;36.05;22.70;;;;;;;0.38;77.92;99703.47;1765572;80;21176;-56
2021/01/10 02:36:07;;;;;;;38.30;23.47;;;;;;;0.33;78.12;99708.10;1744104;80;21378;-56
2021/01/10 02:39:06;;;;;;;39.35;22.80;;;;;;;0.43;77.83;99706.34;1772066;80;21172;-57
2021/01/10 02:41:43;;;;;;;35.55;22.05;;;;;;;0.38;77.93;99699.45;1767721;80;21181;-58
2021/01/10 02:44:29;;;;;;;37.40;23.92;;;;;;;0.36;77.92;99700.99;1767051;80;21148;-56
2021/01/10 02:46:57;;;;;;;34.58;20.82;;;;;;;0.39;77.64;99703.25;1764019;80;21606;-57
2021/01/10 02:49:24;;;;;;;36.90;23.10;;;;;;;0.34;77.91;99701.72;1758687;80;21137;-56
2021/01/10 02:51:52;;;;;;;36.20;24.25;;;;;;;0.38;77.85;99704.30;1784383;80;21196;-56
2021/01/10 02:54:20;;;;;;;37.93;22.30;;;;;;;0.46;77.65;99704.61;1747152;81;21150;-56
2021/01/10 02:56:52;;;;;;;33.33;21.05;;;;;;;0.38;77.79;99698.95;1773154;80;21161;-56
2021/01/10 02:59:23;;;;;;;38.50;23.02;;;;;;;0.37;77.86;99704.49;1757034;80;21506;-56
2021/01/10 03:01:51;;;;;;;35.50;23.40;;;;;;;0.45;77.60;99707.80;1754538;80;21203;-56
2021/01/10 03:04:19;;;;;;;34.67;20.62;;;;;;;0.42;77.72;99701.52;1757949;80;21121;-57
2021/01/10 03:06:46;;;;;;;35.43;21.68;;;;;;;0.36;77.91;99707.69;1756675;80;21168;-57
2021/01/10 03:09:14;;;;;;;33.70;21.35;;;;;;;0.42;77.77;99704.71;1758591;80;21543;-56
2021/01/10 03:11:43;;;;;;;38.45;23.05;;;;;;;0.47;77.58;99707.06;1774027;80;21180;-56
2021/01/10 03:14:10;;;;;;;40.63;24.67;;;;;;;0.40;77.79;99701.40;1762832;80;21173;-56
2021/01/10 03:16:38;;;;;;;31.90;20.55;;;;;;;0.44;77.72;99709.33;1780813;80;21157;-57
2021/01/10 03:19:06;;;;;;;40.35;25.92;;;;;;;0.51;77.56;99704.80;1766905;80;21553;-55
2021/01/10 03:21:33;;;;;;;35.48;21.60;;;;;;;0.44;77.70;99710.67;1762580;80;21197;-56
2021/01/10 03:24:03;;;;;;;33.85;21.85;;;;;;;0.41;77.86;99711.92;1776337;80;21287;-56
2021/01/10 03:26:30;;;;;;;40.63;25.88;;;;;;;0.50;77.61;99705.30;1783261;80;21172;-57
2021/01/10 03:28:57;;;;;;;38.73;23.85;;;;;;;0.46;77.67;99712.10;1766775;80;21980;-57
2021/01/10 03:31:25;;;;;;;35.65;22.60;;;;;;;0.41;77.92;99705.22;1785137;79;21133;-57
2021/01/10 03:33:52;;;;;;;35.48;22.10;;;;;;;0.50;77.60;99711.17;1772460;80;21160;-57
2021/01/10 03:36:20;;;;;;;35.80;21.85;;;;;;;0.48;77.56;99710.57;1767470;79;21761;-56
2021/01/10 03:38:47;;;;;;;36.53;21.02;;;;;;;0.41;77.86;99707.08;1779651;80;21116;-57
2021/01/10 03:41:15;;;;;;;35.73;22.10;;;;;;;0.44;77.75;99707.99;1769647;80;21194;-57
2021/01/10 03:43:42;;;;;;;38.20;24.45;;;;;;;0.41;77.63;99705.22;1772324;80;21177;-57
2021/01/10 03:46:10;;;;;;;37.05;23.35;;;;;;;0.39;77.86;99705.13;1778885;80;21171;-56
2021/01/10 03:48:38;;;;;;;34.80;22.02;;;;;;;0.42;77.74;99702.86;1790484;80;21177;-56
2021/01/10 03:51:06;;;;;;;35.92;22.95;;;;;;;0.47;77.65;99697.69;1760914;80;21210;-56
2021/01/10 03:53:35;;;;;;;35.40;22.32;;;;;;;0.40;77.77;99702.73;1761609;80;21134;-57
2021/01/10 03:56:04;;;;;;;35.98;22.52;;;;;;;0.43;77.67;99704.48;1762714;80;21824;-57
2021/01/10 03:58:31;;;;;;;36.95;22.48;;;;;;;0.49;77.53;99705.02;1758036;80;21159;-57
2021/01/10 04:00:59;;;;;;;32.85;21.10;;;;;;;0.39;77.72;99703.80;1757395;80;21304;-56
2021/01/10 04:03:26;;;;;;;35.80;22.67;;;;;;;0.40;77.71;99703.56;1767310;80;21615;-56
2021/01/10 04:05:54;;;;;;;35.08;22.82;;;;;;;0.50;77.47;99712.52;1784560;80;21359;-56
2021/01/10 04:08:21;;;;;;;34.43;20.62;;;;;;;0.47;77.49;99717.78;1761484;80;21242;-57
2021/01/10 04:10:49;;;;;;;37.20;22.42;;;;;;;0.39;77.51;99711.83;1757551;80;21593;-56
2021/01/10 04:13:17;;;;;;;33.00;20.17;;;;;;;0.45;77.43;99710.48;1776606;80;21310;-58
2021/01/10 04:15:45;;;;;;;35.90;22.05;;;;;;;0.52;77.35;99715.00;1765298;80;21677;-56
2021/01/10 04:18:12;;;;;;;35.10;22.85;;;;;;;0.43;77.42;99716.54;1774427;80;21161;-56
2021/01/10 04:20:39;;;;;;;36.03;22.42;;;;;;;0.44;77.43;99718.70;1767795;81;21178;-57
2021/01/10 04:23:07;;;;;;;34.38;21.20;;;;;;;0.43;77.36;99717.88;1774991;81;21118;-55
2021/01/10 04:25:35;;;;;;;38.00;23.67;;;;;;;0.41;77.41;99717.78;1755600;81;21493;-57
2021/01/10 04:28:04;;;;;;;37.40;23.02;;;;;;;0.43;77.36;99719.22;1747517;81;21332;-56
2021/01/10 04:30:31;;;;;;;36.93;24.37;;;;;;;0.31;77.19;99687.92;1748854;81;21158;-56
2021/01/10 04:33:01;;;;;;;37.90;22.98;;;;;;;0.43;77.34;99724.58;1742873;81;21157;-58
2021/01/10 04:35:29;;;;;;;36.30;22.85;;;;;;;0.40;77.51;99728.18;1753099;81;21130;-56
2021/01/10 04:37:57;;;;;;;37.73;23.52;;;;;;;0.52;77.25;99739.93;1762586;81;21153;-56
2021/01/10 04:40:24;;;;;;;35.28;21.57;;;;;;;0.49;77.28;99741.69;1775244;81;21142;-56
2021/01/10 04:42:52;;;;;;;33.15;20.65;;;;;;;0.41;77.46;99742.72;1774848;81;21150;-56
2021/01/10 04:45:21;;;;;;;32.45;21.40;;;;;;;0.51;77.30;99740.95;1760030;81;21154;-56
2021/01/10 04:47:48;;;;;;;33.85;21.68;;;;;;;0.55;77.20;99753.42;1756051;81;21170;-57
2021/01/10 04:50:17;;;;;;;36.17;22.07;;;;;;;0.46;77.35;99747.46;1766253;80;21156;-57
2021/01/10 04:52:45;;;;;;;31.17;20.52;;;;;;;0.50;77.35;99753.52;1744215;82;21189;-57
2021/01/10 04:55:14;;;;;;;37.05;21.95;;;;;;;0.58;77.21;99754.34;1766653;80;21541;-57
2021/01/10 04:57:42;;;;;;;34.83;21.97;;;;;;;0.50;77.31;99754.86;1762242;81;21508;-57
2021/01/10 05:00:11;;;;;;;33.35;21.42;;;;;;;0.47;77.50;99756.61;1726355;82;21295;-56
2021/01/10 05:02:46;;;;;;;36.85;22.60;;;;;;;0.58;77.18;99759.70;1756564;81;21801;-57
2021/01/10 05:05:14;;;;;;;34.80;21.48;;;;;;;0.54;77.21;99759.28;1752140;81;21165;-56
2021/01/10 05:07:42;;;;;;;35.03;21.90;;;;;;;0.48;77.50;99768.98;1752231;81;21146;-59
2021/01/10 05:10:11;;;;;;;34.95;22.07;;;;;;;0.53;77.48;99768.89;1778017;81;21170;-56
2021/01/10 05:12:39;;;;;;;35.98;22.32;;;;;;;0.57;77.29;99774.94;1773552;81;21142;-57
2021/01/10 05:15:09;;;;;;;34.35;22.05;;;;;;;0.52;77.47;99778.77;1771429;81;21146;-57
2021/01/10 05:17:37;;;;;;;35.17;22.45;;;;;;;0.48;77.62;99777.53;1768539;80;21276;-56
2021/01/10 05:20:09;;;;;;;35.63;20.95;;;;;;;0.59;77.37;99770.73;1765416;80;21533;-56
2021/01/10 05:22:40;;;;;;;38.70;24.72;;;;;;;0.59;77.32;99779.59;1747146;80;21105;-56
2021/01/10 05:25:13;;;;;;;33.10;19.57;;;;;;;0.49;77.47;99785.38;1783783;80;21480;-58
2021/01/10 05:27:41;;;;;;;33.45;20.57;;;;;;;0.56;77.42;99789.39;1777226;80;21154;-57
2021/01/10 05:30:10;;;;;;;34.60;21.23;;;;;;;0.61;77.24;99778.03;1774149;80;21133;-57
2021/01/10 05:32:38;;;;;;;37.83;22.15;;;;;;;0.54;77.45;99783.39;1782784;80;21593;-57
2021/01/10 05:35:07;;;;;;;33.42;21.65;;;;;;;0.50;77.64;99783.49;1705509;83;21601;-57
2021/01/10 05:37:37;;;;;;;33.58;21.45;;;;;;;0.61;77.46;99784.73;1718682;83;21703;-57
2021/01/10 05:40:06;;;;;;;35.90;23.22;;;;;;;0.62;77.32;99785.88;1706550;83;21206;-57
2021/01/10 05:42:34;;;;;;;34.90;20.90;;;;;;;0.56;77.54;99793.92;1705037;82;21153;-57
2021/01/10 05:45:05;;;;;;;34.10;21.82;;;;;;;0.50;77.69;99792.87;1717483;83;21238;-57
2021/01/10 05:47:38;;;;;;;32.35;21.07;;;;;;;0.59;77.52;99797.02;1715606;83;21159;-55
2021/01/10 05:50:14;;;;;;;32.80;20.95;;;;;;;0.60;77.49;99801.86;1698914;83;21133;-58
2021/01/10 05:52:42;;;;;;;31.68;20.88;;;;;;;0.54;77.71;99805.34;1776933;80;21538;-56
2021/01/10 05:55:10;;;;;;;34.60;21.55;;;;;;;0.50;77.91;99800.91;1725650;81;21286;-57
2021/01/10 05:57:37;;;;;;;37.67;23.90;;;;;;;0.42;77.54;99779.19;1737588;80;21121;-56
2021/01/10 06:00:06;;;;;;;35.68;21.23;;;;;;;0.58;77.60;99804.73;1780028;80;21181;-56
2021/01/10 06:02:37;;;;;;;40.45;25.43;;;;;;;0.53;77.84;99809.06;1711739;80;21137;-56
2021/01/10 06:05:19;;;;;;;37.98;23.18;;;;;;;0.54;77.86;99806.16;1782883;80;21153;-56
2021/01/10 06:07:48;;;;;;;37.63;24.35;;;;;;;0.66;77.60;99810.40;1778375;81;21169;-56
2021/01/10 06:10:29;;;;;;;36.77;21.68;;;;;;;0.62;77.77;99814.52;1774428;80;21145;-56
2021/01/10 06:13:05;;;;;;;35.05;22.22;;;;;;;0.55;77.95;99818.53;1771227;80;21703;-56
2021/01/10 06:15:35;;;;;;;28.17;18.23;;;;;;;0.62;77.89;99815.86;1766057;80;21691;-56
2021/01/10 06:18:05;;;;;;;32.70;21.33;;;;;;;0.68;77.75;99828.42;1770142;80;21272;-56
2021/01/10 06:20:34;;;;;;;29.67;18.95;;;;;;;0.60;78.01;99829.98;1709187;82;21165;-56
2021/01/10 06:23:04;;;;;;;29.12;18.32;;;;;;;0.53;78.28;99834.00;1728953;82;21149;-57
2021/01/10 06:25:35;;;;;;;29.90;18.92;;;;;;;0.58;78.35;99834.70;1728232;82;21602;-55
2021/01/10 06:28:19;;;;;;;30.35;19.37;;;;;;;0.60;78.30;99832.66;1733316;82;21154;-56
2021/01/10 06:30:59;;;;;;;31.68;19.90;;;;;;;0.51;78.55;99826.67;1728378;82;21170;-57
2021/01/10 06:33:31;;;;;;;28.75;18.52;;;;;;;0.45;78.81;99835.02;1729506;82;21699;-58
2021/01/10 06:36:06;;;;;;;30.77;19.65;;;;;;;0.55;78.70;99835.95;1733460;82;21573;-57
2021/01/10 06:38:36;;;;;;;26.27;17.50;;;;;;;0.53;78.76;99835.34;1700191;82;21177;-57
2021/01/10 06:41:27;;;;;;;31.35;19.50;;;;;;;0.45;79.00;99837.70;1746190;82;21170;-58
2021/01/10 06:44:02;;;;;;;29.67;19.10;;;;;;;0.49;79.09;99843.47;1739150;82;21160;-56
2021/01/10 06:46:30;;;;;;;33.18;20.37;;;;;;;0.54;79.00;99848.19;1713552;82;21186;-56
2021/01/10 06:49:00;;;;;;;33.10;21.27;;;;;;;0.45;79.33;99848.41;1724763;82;21217;-56
2021/01/10 06:51:29;;;;;;;34.78;20.85;;;;;;;0.43;79.49;99847.77;1712260;82;21186;-56
2021/01/10 06:53:57;;;;;;;29.87;19.42;;;;;;;0.55;79.34;99860.05;1725923;82;21635;-56
2021/01/10 06:56:24;;;;;;;33.35;21.25;;;;;;;0.58;79.23;99862.83;1702282;82;21592;-56
2021/01/10 06:59:08;;;;;;;30.88;20.12;;;;;;;0.51;79.49;99865.51;1737229;82;21763;-56
2021/01/10 07:01:56;;;;;;;28.98;19.17;;;;;;;0.48;79.65;99864.06;1731210;82;21606;-56
2021/01/10 07:04:43;;;;;;;33.35;20.92;;;;;;;0.60;79.40;99871.51;1722048;82;21652;-56
2021/01/10 07:07:30;;;;;;;37.30;23.42;;;;;;;0.61;79.33;99869.12;1721660;83;21657;-57
2021/01/10 07:10:00;;;;;;;36.23;22.50;;;;;;;0.49;79.68;99872.42;1706645;82;21150;-56
2021/01/10 07:12:27;;;;;;;31.30;20.32;;;;;;;0.54;79.62;99866.44;1744040;82;21739;-57
2021/01/10 07:15:20;;;;;;;32.65;21.48;;;;;;;0.61;79.57;99871.80;1729441;83;21689;-57
2021/01/10 07:18:05;;;;;;;35.30;22.10;;;;;;;0.55;79.79;99875.30;1729584;83;21159;-57
2021/01/10 07:20:36;;;;;;;32.80;20.90;;;;;;;0.46;80.05;99880.84;1698242;83;21193;-57
2021/01/10 07:23:25;;;;;;;30.72;20.57;;;;;;;0.55;79.90;99880.15;1713081;82;21384;-57
2021/01/10 07:25:53;;;;;;;34.78;20.48;;;;;;;0.53;79.96;99882.73;1739879;82;21197;-56
2021/01/10 07:28:34;;;;;;;32.65;20.75;;;;;;;0.45;80.23;99888.59;1742982;81;21231;-57
2021/01/10 07:31:10;;;;;;;30.75;19.62;;;;;;;0.49;80.18;99891.69;1743196;82;21185;-57
2021/01/10 07:33:39;;;;;;;32.65;19.87;;;;;;;0.59;79.95;99891.28;1729521;82;21180;-57
2021/01/10 07:36:06;;;;;;;35.48;23.27;;;;;;;0.53;80.05;99898.80;1702144;84;21196;-57
2021/01/10 07:38:35;;;;;;;32.65;19.67;;;;;;;0.48;80.25;99894.87;1701994;84;21232;-56
2021/01/10 07:41:27;;;;;;;36.85;22.55;;;;;;;0.65;79.93;99891.80;1714707;82;21157;-56
2021/01/10 07:43:57;;;;;;;32.13;20.15;;;;;;;0.68;79.82;99890.88;1733731;82;21707;-57
2021/01/10 07:46:52;;;;;;;29.10;18.98;;;;;;;0.62;79.90;99894.89;1708184;82;21319;-55
2021/01/10 07:49:29;;;;;;;29.37;19.10;;;;;;;0.64;79.91;99899.00;1708872;82;21196;-58
2021/01/10 07:51:56;;;;;;;32.05;20.10;;;;;;;0.78;79.57;99893.17;1711165;82;21299;-56
2021/01/10 07:54:48;;;;;;;29.80;19.17;;;;;;;0.74;79.58;99891.42;1724907;82;21203;-57
2021/01/10 07:57:31;;;;;;;32.80;20.10;;;;;;;0.67;79.72;99894.61;1724535;82;21180;-55
2021/01/10 08:00:14;;;;;;;29.50;18.23;;;;;;;0.72;79.47;99897.48;1739605;82;21519;-54
2021/01/10 08:02:54;;;;;;;28.80;17.87;;;;;;;0.71;79.50;99906.54;1735550;81;21150;-55
2021/01/10 08:05:26;;;;;;;29.55;19.45;;;;;;;0.62;79.68;99901.08;1732973;82;21359;-55
2021/01/10 08:08:01;;;;;;;26.77;18.17;;;;;;;0.71;79.51;99912.44;1707437;82;21727;-56
2021/01/10 08:10:48;;;;;;;31.87;21.42;;;;;;;0.77;79.38;99905.75;1702125;84;21617;-56
2021/01/10 08:13:37;;;;;;;;;;;;;;;0.74;79.57;99905.33;1733936;82;21149;-56
2021/01/10 08:16:13;;;;;;;31.37;20.08;;;;;;;0.79;79.55;99907.69;1730935;82;20351;-57
2021/01/10 08:18:45;;;;;;;33.18;20.10;;;;;;;0.91;79.19;99913.28;1733786;80;21310;-57
2021/01/10 08:21:14;;;;;;;32.25;19.02;;;;;;;0.86;79.19;99917.91;1756621;80;21223;-56
2021/01/10 08:23:44;;;;;;;30.60;19.07;;;;;;;0.81;79.32;99907.50;1750705;82;21202;-56
2021/01/10 08:26:15;;;;;;;32.73;19.95;;;;;;;0.91;79.22;99910.09;1743245;79;21129;-57
2021/01/10 08:28:55;;;;;;;29.25;20.30;;;;;;;0.93;79.02;99913.38;1763095;80;21109;-57
2021/01/10 08:31:26;;;;;;;33.98;21.80;;;;;;;0.72;79.22;99889.44;1753189;80;21309;-57
2021/01/10 08:34:07;;;;;;;31.90;18.70;;;;;;;0.96;79.13;99912.95;1738129;80;21150;-56
2021/01/10 08:36:35;;;;;;;31.48;20.05;;;;;;;1.04;78.71;99917.30;1740932;79;21216;-56
2021/01/10 08:39:09;;;;;;;33.58;21.87;;;;;;;0.95;78.76;99913.19;1728073;80;21627;-56
2021/01/10 08:41:45;;;;;;;33.10;21.20;;;;;;;0.99;78.69;99914.42;1750568;82;21663;-57
2021/01/10 08:44:18;;;;;;;33.28;22.25;;;;;;;1.03;78.45;99919.66;1749795;80;21166;-56
2021/01/10 08:46:50;;;;;;;33.23;20.55;;;;;;;0.95;78.68;99922.05;1733942;80;21231;-56
2021/01/10 08:52:00;;;;;;;33.53;20.45;;;;;;;1.05;78.11;99915.45;1755282;79;23637;-55
2021/01/10 08:54:27;;;;;;;30.08;19.55;;;;;;;0.99;78.29;99917.91;1694457;83;21671;-55
2021/01/10 08:56:56;;;;;;;34.10;20.23;;;;;;;0.96;78.38;99916.16;1706604;83;22064;-56
2021/01/10 08:59:36;;;;;;;30.25;19.45;;;;;;;1.00;78.18;99917.39;1722176;83;21283;-56
2021/01/10 09:02:11;;;;;;;33.85;20.60;;;;;;;1.05;78.12;99909.57;1755040;79;22638;-55
2021/01/10 09:04:43;;;;;;;30.95;19.35;;;;;;;0.94;78.34;99912.35;1722543;83;21180;-57
2021/01/10 09:07:19;;;;;;;33.70;20.52;;;;;;;0.92;78.39;99910.37;1705063;83;21176;-57
2021/01/10 09:10:03;;;;;;;30.75;19.27;;;;;;;1.05;78.06;99912.77;1700344;83;21171;-57
2021/01/10 09:12:46;;;;;;;34.65;22.73;;;;;;;1.05;77.94;99910.91;1710664;82;21168;-58
2021/01/10 09:15:21;;;;;;;35.58;22.77;;;;;;;1.00;78.18;99908.02;1686770;85;21223;-56
2021/01/10 09:18:03;;;;;;;33.42;20.82;;;;;;;1.05;78.06;99906.89;1689136;85;21585;-57
2021/01/10 09:20:36;;;;;;;35.13;22.55;;;;;;;1.18;77.64;99906.05;1658009;85;21220;-57
2021/01/10 09:23:07;;;;;;;36.48;21.82;;;;;;;1.14;77.77;99908.32;1681708;85;21137;-57
2021/01/10 09:25:35;;;;;;;37.45;22.10;;;;;;;1.09;78.00;99907.30;1672566;85;21268;-57
2021/01/10 09:28:17;;;;;;;32.35;21.45;;;;;;;1.17;77.84;99903.88;1708303;83;21141;-57
2021/01/10 09:30:56;;;;;;;31.70;19.73;;;;;;;1.23;77.29;99903.08;1719287;82;21692;-56
2021/01/10 09:34:41;;;;;;;30.55;19.48;;;;;;;1.20;77.45;99900.81;1806240;78;23291;-57
2021/01/10 09:37:09;;;;;;;33.18;20.68;;;;;;;1.21;77.37;99906.98;1714416;81;21182;-56
2021/01/10 09:39:42;;;;;;;33.65;19.75;;;;;;;1.34;77.11;99901.11;1727809;81;21151;-57
2021/01/10 09:42:12;;;;;;;34.50;21.37;;;;;;;1.29;77.02;99906.27;1730333;81;21170;-56
2021/01/10 09:44:42;;;;;;;33.40;21.07;;;;;;;1.22;77.31;99910.80;1730349;81;21140;-56
2021/01/10 09:47:11;;;;;;;28.00;18.35;;;;;;;1.28;77.31;99909.97;1690596;81;21673;-56
2021/01/10 09:49:41;;;;;;;34.30;21.27;;;;;;;1.36;77.18;99912.44;1744406;81;21217;-56
2021/01/10 09:52:12;;;;;;;35.45;21.90;;;;;;;1.32;77.20;99911.72;1709267;82;21201;-58
2021/01/10 09:54:40;;;;;;;33.20;21.27;;;;;;;1.25;77.45;99918.43;1758175;81;21180;-57
2021/01/10 09:57:16;;;;;;;31.73;19.10;;;;;;;1.29;77.00;99908.94;1736355;81;21177;-57
2021/01/10 09:59:46;;;;;;;31.62;19.12;;;;;;;1.36;76.63;99907.08;1730200;83;21166;-57
2021/01/10 10:02:33;;;;;;;37.73;24.02;;;;;;;1.24;77.00;99910.61;1737915;81;21172;-57
2021/01/10 10:05:19;;;;;;;41.08;24.45;;;;;;;1.17;77.45;99905.22;1729541;81;21153;-57
2021/01/10 10:07:51;;;;;;;33.92;21.65;;;;;;;1.27;77.39;99907.51;1733980;81;21595;-55
2021/01/10 10:10:32;;;;;;;34.00;21.40;;;;;;;1.19;77.27;99911.22;1745936;81;21596;-57
2021/01/10 10:13:02;;;;;;;38.17;22.73;;;;;;;1.09;77.63;99904.11;1731342;81;21200;-57
2021/01/10 10:15:43;;;;;;;36.98;22.52;;;;;;;1.16;77.70;99908.95;1730565;83;21133;-55
2021/01/10 10:18:28;;;;;;;38.35;23.20;;;;;;;1.22;77.62;99909.46;1731198;81;21188;-56
2021/01/10 10:20:58;;;;;;;38.67;24.10;;;;;;;1.18;77.88;99905.54;1744992;81;21141;-58
2021/01/10 10:23:25;;;;;;;38.88;22.65;;;;;;;1.21;78.07;99898.93;1719381;81;21292;-57
2021/01/10 10:25:53;;;;;;;36.93;21.52;;;;;;;1.37;77.52;99906.05;1756367;81;21230;-55
2021/01/10 10:28:22;;;;;;;35.55;22.32;;;;;;;1.40;77.30;99900.27;1742610;81;21133;-56
2021/01/10 10:30:49;;;;;;;39.27;23.55;;;;;;;1.34;76.94;99901.11;1720515;81;21141;-57
2021/01/10 10:33:17;;;;;;;31.30;20.70;;;;;;;1.29;77.02;99900.89;1731065;81;21169;-58
2021/01/10 10:35:44;;;;;;;37.20;22.32;;;;;;;1.41;76.88;99898.41;1713872;83;21187;-57
2021/01/10 10:38:11;;;;;;;30.90;19.30;;;;;;;1.44;77.06;99897.99;1719014;82;21149;-57
2021/01/10 10:40:40;;;;;;;39.70;25.57;;;;;;;1.41;77.09;99895.22;1718268;82;21335;-56
2021/01/10 10:43:07;;;;;;;35.45;21.87;;;;;;;1.40;77.27;99896.24;1727061;82;21638;-58
2021/01/10 10:45:34;;;;;;;39.83;25.02;;;;;;;1.51;76.95;99893.44;1693667;84;21248;-58
2021/01/10 10:48:03;;;;;;;32.98;20.32;;;;;;;1.63;76.59;99893.63;1732683;82;21739;-57
2021/01/10 10:50:31;;;;;;;29.25;18.82;;;;;;;1.58;76.40;99896.11;1724084;82;21250;-59
2021/01/10 10:52:58;;;;;;;34.10;20.50;;;;;;;1.52;76.48;99895.09;1719841;82;21357;-60
2021/01/10 10:55:28;;;;;;;35.33;21.77;;;;;;;1.50;76.26;99892.61;1723056;82;21268;-55
2021/01/10 10:57:57;;;;;;;40.45;24.67;;;;;;;1.64;75.99;99896.59;1678865;84;21159;-55
2021/01/10 11:00:26;;;;;;;28.73;18.15;;;;;;;1.65;76.00;99892.38;1720722;82;21165;-56
2021/01/10 11:02:54;;;;;;;47.00;27.65;;;;;;;1.61;76.02;99891.66;1722314;82;21153;-56
2021/01/10 11:05:22;;;;;;;33.98;19.82;;;;;;;1.58;76.21;99891.57;1709490;82;21161;-56
2021/01/10 11:07:51;;;;;;;35.78;21.40;;;;;;;1.65;75.27;99894.23;1710533;83;21521;-58
2021/01/10 11:10:19;;;;;;;30.43;19.48;;;;;;;1.68;75.04;99892.47;1719674;83;21181;-57
2021/01/10 11:12:46;;;;;;;33.80;22.25;;;;;;;1.54;75.36;99894.36;1723157;82;21344;-56
2021/01/10 11:15:14;;;;;;;32.40;20.85;;;;;;;1.45;75.95;99893.74;1722335;82;21127;-56
2021/01/10 11:17:42;;;;;;;28.40;18.15;;;;;;;1.45;76.07;99893.74;1681852;84;21163;-56
2021/01/10 11:20:10;;;;;;;30.97;19.70;;;;;;;1.60;75.73;99895.36;1681439;83;21667;-59
2021/01/10 11:22:41;;;;;;;33.98;20.92;;;;;;;1.60;75.75;99895.36;1722140;82;21154;-57
2021/01/10 11:25:09;;;;;;;35.35;22.52;;;;;;;1.52;75.89;99892.93;1728528;82;21763;-57
2021/01/10 11:27:36;;;;;;;33.23;21.25;;;;;;;1.46;76.07;99894.57;1720782;82;21624;-57
2021/01/10 11:30:05;;;;;;;32.85;20.62;;;;;;;1.51;75.80;99896.13;1737049;82;21122;-57
2021/01/10 11:32:34;;;;;;;30.17;19.52;;;;;;;1.59;75.57;99900.45;1688591;83;21298;-57
2021/01/10 11:35:02;;;;;;;32.88;20.15;;;;;;;1.56;75.68;99903.55;1736619;82;21145;-57
2021/01/10 11:37:30;;;;;;;33.63;21.05;;;;;;;1.51;75.60;99896.13;1741010;82;21159;-58
2021/01/10 11:39:58;;;;;;;31.45;19.82;;;;;;;1.52;75.67;99899.12;1734216;82;21299;-59
2021/01/10 11:42:28;;;;;;;32.95;18.95;;;;;;;1.66;75.23;99898.06;1747129;82;21165;-57
2021/01/10 11:44:56;;;;;;;36.30;23.12;;;;;;;1.68;75.01;99896.49;1738924;82;21184;-59
2021/01/10 11:47:26;;;;;;;33.13;20.17;;;;;;;1.62;75.31;99900.02;1736054;82;21129;-57
2021/01/10 11:49:53;;;;;;;33.67;20.37;;;;;;;1.61;75.43;99903.73;1732773;82;21195;-56